Terminal Aerodrome Forecast
Issued by NWS Midland/Odessa, TX

Home | Current Version | Previous Version | Text Only | Print | Product List | Glossary On
Versions: 1 2 3 4 5 6 7 8 9 10 11 12 13
000
FTUS44 KMAF 300000 AAA
TAFMAF
TAF AMD
KMAF 300035Z 3001/3024 05015G23KT P6SM SCT250
     FM300400 06010KT P6SM SCT250
     FM301500 14009KT P6SM BKN250=

USA.gov is the U.S. government's official web portal to all federal, state and local government web resources and services.